sensor_id;sensor_type;location;lat;lon;timestamp;pressure;altitude;pressure_sealevel;temperature;humidity
8280;BME280;8335;42.646;23.380;2023-07-13T00:00:35;147288.06;;;23.17;60.64
8280;BME280;8335;42.646;23.380;2023-07-13T00:03:02;147288.06;;;23.17;61.40
8280;BME280;8335;42.646;23.380;2023-07-13T00:05:30;147283.06;;;23.15;61.79
8280;BME280;8335;42.646;23.380;2023-07-13T00:07:57;147276.75;;;23.13;61.34
8280;BME280;8335;42.646;23.380;2023-07-13T00:10:24;147269.22;;;23.10;60.77
8280;BME280;8335;42.646;23.380;2023-07-13T00:12:52;147281.78;;;23.15;60.82
8280;BME280;8335;42.646;23.380;2023-07-13T00:15:26;147255.41;;;23.04;61.77
8280;BME280;8335;42.646;23.380;2023-07-13T00:17:55;147264.22;;;23.08;61.17
8280;BME280;8335;42.646;23.380;2023-07-13T00:20:23;147251.66;;;23.02;60.79
8280;BME280;8335;42.646;23.380;2023-07-13T00:22:50;147251.66;;;23.02;61.33
8280;BME280;8335;42.646;23.380;2023-07-13T00:25:19;147250.41;;;23.02;62.40
8280;BME280;8335;42.646;23.380;2023-07-13T00:27:46;147131.16;;;22.53;61.84
8280;BME280;8335;42.646;23.380;2023-07-13T00:30:16;147217.78;;;22.89;63.90
8280;BME280;8335;42.646;23.380;2023-07-13T00:32:43;147192.63;;;22.78;64.81
8280;BME280;8335;42.646;23.380;2023-07-13T00:35:10;147177.59;;;22.72;64.90
8280;BME280;8335;42.646;23.380;2023-07-13T00:37:37;147155.00;;;22.63;64.99
8280;BME280;8335;42.646;23.380;2023-07-13T00:40:05;147132.44;;;22.54;65.67
8280;BME280;8335;42.646;23.380;2023-07-13T00:42:33;147128.69;;;22.52;66.28
8280;BME280;8335;42.646;23.380;2023-07-13T00:47:50;147122.38;;;22.50;67.36
8280;BME280;8335;42.646;23.380;2023-07-13T00:50:18;147093.56;;;22.38;68.17
8280;BME280;8335;42.646;23.380;2023-07-13T00:52:49;147059.69;;;22.24;68.68
8280;BME280;8335;42.646;23.380;2023-07-13T00:55:17;147053.44;;;22.22;68.74
8280;BME280;8335;42.646;23.380;2023-07-13T00:57:45;147037.13;;;22.15;69.20
8280;BME280;8335;42.646;23.380;2023-07-13T01:00:12;147024.56;;;22.10;69.41
8280;BME280;8335;42.646;23.380;2023-07-13T01:02:42;147024.56;;;22.10;69.50
8280;BME280;8335;42.646;23.380;2023-07-13T01:05:14;146999.41;;;22.00;69.79
8280;BME280;8335;42.646;23.380;2023-07-13T01:07:42;146990.66;;;21.96;69.89
8280;BME280;8335;42.646;23.380;2023-07-13T01:10:10;146989.41;;;21.96;70.17
8280;BME280;8335;42.646;23.380;2023-07-13T01:12:37;146980.63;;;21.92;70.45
8280;BME280;8335;42.646;23.380;2023-07-13T01:15:05;146974.38;;;21.90;71.20
8280;BME280;8335;42.646;23.380;2023-07-13T01:17:34;146966.84;;;21.87;71.53
8280;BME280;8335;42.646;23.380;2023-07-13T01:20:01;146960.56;;;21.84;71.14
8280;BME280;8335;42.646;23.380;2023-07-13T01:22:29;146950.56;;;21.80;70.55
8280;BME280;8335;42.646;23.380;2023-07-13T01:24:57;146940.50;;;21.76;70.31
8280;BME280;8335;42.646;23.380;2023-07-13T01:27:25;146941.75;;;21.77;70.36
8280;BME280;8335;42.646;23.380;2023-07-13T01:29:53;146929.22;;;21.71;70.89
8280;BME280;8335;42.646;23.380;2023-07-13T01:32:27;146910.41;;;21.64;70.69
8280;BME280;8335;42.646;23.380;2023-07-13T01:34:54;146944.25;;;21.78;70.56
8280;BME280;8335;42.646;23.380;2023-07-13T01:37:21;146944.25;;;21.78;70.32
8280;BME280;8335;42.646;23.380;2023-07-13T01:39:49;146938.00;;;21.75;70.83
8280;BME280;8335;42.646;23.380;2023-07-13T01:42:17;146951.81;;;21.81;70.73
8280;BME280;8335;42.646;23.380;2023-07-13T01:44:43;146943.00;;;21.77;71.17
8280;BME280;8335;42.646;23.380;2023-07-13T01:47:10;146938.00;;;21.75;71.53
8280;BME280;8335;42.646;23.380;2023-07-13T01:49:37;146934.25;;;21.74;71.25
8280;BME280;8335;42.646;23.380;2023-07-13T01:52:04;146938.00;;;21.75;71.40
8280;BME280;8335;42.646;23.380;2023-07-13T01:54:31;146921.72;;;21.68;72.29
8280;BME280;8335;42.646;23.380;2023-07-13T01:57:00;146894.13;;;21.57;72.76
8280;BME280;8335;42.646;23.380;2023-07-13T01:59:27;146884.09;;;21.53;73.36
8280;BME280;8335;42.646;23.380;2023-07-13T02:01:54;146871.56;;;21.48;73.94
8280;BME280;8335;42.646;23.380;2023-07-13T02:04:20;146832.72;;;21.32;74.82
8280;BME280;8335;42.646;23.380;2023-07-13T02:06:47;146812.63;;;21.24;75.79
8280;BME280;8335;42.646;23.380;2023-07-13T02:09:14;146773.78;;;21.08;76.54
8280;BME280;8335;42.646;23.380;2023-07-13T02:11:41;146741.19;;;20.95;77.27
8280;BME280;8335;42.646;23.380;2023-07-13T02:14:09;146738.69;;;20.94;77.25
8280;BME280;8335;42.646;23.380;2023-07-13T02:16:34;146736.16;;;20.93;77.40
8280;BME280;8335;42.646;23.380;2023-07-13T02:19:01;146731.16;;;20.91;77.52
8280;BME280;8335;42.646;23.380;2023-07-13T02:21:28;146741.19;;;20.95;77.37
8280;BME280;8335;42.646;23.380;2023-07-13T02:23:55;146744.94;;;20.97;77.46
8280;BME280;8335;42.646;23.380;2023-07-13T02:26:23;146738.69;;;20.94;77.34
8280;BME280;8335;42.646;23.380;2023-07-13T02:28:49;146734.91;;;20.93;77.57
8280;BME280;8335;42.646;23.380;2023-07-13T02:31:18;146732.41;;;20.92;77.34
8280;BME280;8335;42.646;23.380;2023-07-13T02:33:45;146732.41;;;20.92;77.01
8280;BME280;8335;42.646;23.380;2023-07-13T02:36:13;146749.94;;;20.99;76.96
8280;BME280;8335;42.646;23.380;2023-07-13T02:38:41;146733.66;;;20.92;76.61
8280;BME280;8335;42.646;23.380;2023-07-13T02:41:09;146717.38;;;20.85;76.47
8280;BME280;8335;42.646;23.380;2023-07-13T02:43:37;146762.50;;;21.04;76.47
8280;BME280;8335;42.646;23.380;2023-07-13T02:46:04;146763.75;;;21.04;76.31
8280;BME280;8335;42.646;23.380;2023-07-13T02:48:35;146751.19;;;20.99;76.07
8280;BME280;8335;42.646;23.380;2023-07-13T02:51:02;146749.94;;;20.99;75.90
8280;BME280;8335;42.646;23.380;2023-07-13T02:53:29;146744.94;;;20.97;75.61
8280;BME280;8335;42.646;23.380;2023-07-13T02:55:56;146747.44;;;20.98;75.90
8280;BME280;8335;42.646;23.380;2023-07-13T02:58:23;146749.94;;;20.99;75.77
8280;BME280;8335;42.646;23.380;2023-07-13T03:00:50;146760.00;;;21.03;75.85
8280;BME280;8335;42.646;23.380;2023-07-13T03:03:17;146761.25;;;21.03;75.91
8280;BME280;8335;42.646;23.380;2023-07-13T03:05:45;146761.25;;;21.03;75.91
8280;BME280;8335;42.646;23.380;2023-07-13T03:08:16;146755.00;;;21.01;76.05
8280;BME280;8335;42.646;23.380;2023-07-13T03:10:43;146756.25;;;21.01;76.38
8280;BME280;8335;42.646;23.380;2023-07-13T03:13:10;146765.00;;;21.05;76.41
8280;BME280;8335;42.646;23.380;2023-07-13T03:15:37;146766.25;;;21.05;76.85
8280;BME280;8335;42.646;23.380;2023-07-13T03:18:03;146773.78;;;21.08;76.82
8280;BME280;8335;42.646;23.380;2023-07-13T03:20:32;146783.78;;;21.12;76.60
8280;BME280;8335;42.646;23.380;2023-07-13T03:23:01;146805.06;;;21.21;76.49
8280;BME280;8335;42.646;23.380;2023-07-13T03:25:28;146831.47;;;21.32;76.05
8280;BME280;8335;42.646;23.380;2023-07-13T03:27:55;146877.84;;;21.51;75.23
8280;BME280;8335;42.646;23.380;2023-07-13T03:30:22;146922.97;;;21.69;74.62
8280;BME280;8335;42.646;23.380;2023-07-13T03:32:49;146971.88;;;21.89;73.41
8280;BME280;8335;42.646;23.380;2023-07-13T03:35:15;146960.56;;;21.84;72.54
8280;BME280;8335;42.646;23.380;2023-07-13T03:37:42;147034.59;;;22.14;72.14
8280;BME280;8335;42.646;23.380;2023-07-13T03:40:12;147093.56;;;22.38;70.80
8280;BME280;8335;42.646;23.380;2023-07-13T03:42:39;147151.25;;;22.62;70.15
8280;BME280;8335;42.646;23.380;2023-07-13T03:45:07;147193.91;;;22.79;69.50
8280;BME280;8335;42.646;23.380;2023-07-13T03:47:33;147235.34;;;22.96;69.11
8280;BME280;8335;42.646;23.380;2023-07-13T03:50:00;147275.50;;;23.12;68.01
8280;BME280;8335;42.646;23.380;2023-07-13T03:52:27;147328.19;;;23.33;67.04
8280;BME280;8335;42.646;23.380;2023-07-13T03:54:54;147350.78;;;23.43;67.49
8280;BME280;8335;42.646;23.380;2023-07-13T03:57:22;147419.88;;;23.71;66.09
8280;BME280;8335;42.646;23.380;2023-07-13T03:59:49;147499.00;;;24.03;64.89
8280;BME280;8335;42.646;23.380;2023-07-13T04:02:15;147602.00;;;24.45;63.54
8280;BME280;8335;42.646;23.380;2023-07-13T04:04:42;147733.88;;;24.98;61.92
8280;BME280;8335;42.646;23.380;2023-07-13T04:07:09;147889.78;;;25.61;59.46
8280;BME280;8335;42.646;23.380;2023-07-13T04:09:36;148039.41;;;26.22;56.95
8280;BME280;8335;42.646;23.380;2023-07-13T04:12:04;148157.69;;;26.70;55.24
8280;BME280;8335;42.646;23.380;2023-07-13T04:14:32;148309.97;;;27.31;52.92
8280;BME280;8335;42.646;23.380;2023-07-13T04:16:59;148442.16;;;27.85;50.60
8280;BME280;8335;42.646;23.380;2023-07-13T04:19:25;148585.72;;;28.43;49.66
8280;BME280;8335;42.646;23.380;2023-07-13T04:21:52;148713.00;;;28.94;48.62
8280;BME280;8335;42.646;23.380;2023-07-13T04:24:19;148831.41;;;29.42;46.42
8280;BME280;8335;42.646;23.380;2023-07-13T04:26:46;148943.63;;;29.87;45.70
8280;BME280;8335;42.646;23.380;2023-07-13T04:29:12;148988.97;;;30.06;45.19
8280;BME280;8335;42.646;23.380;2023-07-13T04:31:40;149054.59;;;30.32;44.81
8280;BME280;8335;42.646;23.380;2023-07-13T04:34:07;149192.09;;;30.88;43.18
8280;BME280;8335;42.646;23.380;2023-07-13T04:36:34;149333.41;;;31.45;42.50
8280;BME280;8335;42.646;23.380;2023-07-13T04:39:03;149436.94;;;31.87;40.29
8280;BME280;8335;42.646;23.380;2023-07-13T04:41:29;149547.97;;;32.31;39.27
8280;BME280;8335;42.646;23.380;2023-07-13T04:43:56;149602.28;;;32.53;38.31
8280;BME280;8335;42.646;23.380;2023-07-13T04:46:23;149638.91;;;32.68;37.74
8280;BME280;8335;42.646;23.380;2023-07-13T04:48:51;149713.44;;;32.98;37.62
8280;BME280;8335;42.646;23.380;2023-07-13T04:51:18;149782.88;;;33.26;36.78
8280;BME280;8335;42.646;23.380;2023-07-13T04:53:45;149789.19;;;33.29;36.22
8280;BME280;8335;42.646;23.380;2023-07-13T04:56:12;149841.00;;;33.50;36.20
8280;BME280;8335;42.646;23.380;2023-07-13T04:58:39;149866.31;;;33.60;36.17
8280;BME280;8335;42.646;23.380;2023-07-13T05:01:06;149920.63;;;33.82;35.45
8280;BME280;8335;42.646;23.380;2023-07-13T05:03:34;149846.09;;;33.52;35.33
8280;BME280;8335;42.646;23.380;2023-07-13T05:06:04;149945.91;;;33.92;35.20
8280;BME280;8335;42.646;23.380;2023-07-13T05:08:31;150010.38;;;34.18;35.34
8280;BME280;8335;42.646;23.380;2023-07-13T05:10:59;150112.78;;;34.59;34.41
8280;BME280;8335;42.646;23.380;2023-07-13T05:13:26;150220.25;;;35.02;33.62
8280;BME280;8335;42.646;23.380;2023-07-13T05:15:57;150270.84;;;35.23;33.47
8280;BME280;8335;42.646;23.380;2023-07-13T05:18:24;150342.97;;;35.52;33.17
8280;BME280;8335;42.646;23.380;2023-07-13T05:21:03;150422.59;;;35.84;32.25
8280;BME280;8335;42.646;23.380;2023-07-13T05:23:31;150499.84;;;36.15;31.71
8280;BME280;8335;42.646;23.380;2023-07-13T05:25:58;150537.78;;;36.30;31.00
8280;BME280;8335;42.646;23.380;2023-07-13T05:28:25;150559.31;;;36.39;30.84
8280;BME280;8335;42.646;23.380;2023-07-13T05:30:52;150661.81;;;36.80;30.43
8280;BME280;8335;42.646;23.380;2023-07-13T05:33:19;150775.75;;;37.26;30.32
8280;BME280;8335;42.646;23.380;2023-07-13T05:35:46;150842.88;;;37.53;30.50
8280;BME280;8335;42.646;23.380;2023-07-13T05:38:15;150903.63;;;37.78;29.63
8280;BME280;8335;42.646;23.380;2023-07-13T05:40:42;150899.84;;;37.76;29.56
8280;BME280;8335;42.646;23.380;2023-07-13T05:43:09;150878.31;;;37.67;30.18
8280;BME280;8335;42.646;23.380;2023-07-13T05:45:36;150812.50;;;37.41;29.68
8280;BME280;8335;42.646;23.380;2023-07-13T05:48:03;150916.34;;;37.83;29.98
8280;BME280;8335;42.646;23.380;2023-07-13T05:50:30;150991.03;;;38.13;29.16
8280;BME280;8335;42.646;23.380;2023-07-13T05:52:57;151064.53;;;38.42;28.74
8280;BME280;8335;42.646;23.380;2023-07-13T05:55:25;151165.91;;;38.83;28.18
8280;BME280;8335;42.646;23.380;2023-07-13T05:57:52;151221.66;;;39.05;28.32
8280;BME280;8335;42.646;23.380;2023-07-13T06:00:19;151311.66;;;39.42;27.40
8280;BME280;8335;42.646;23.380;2023-07-13T06:02:46;151390.28;;;39.73;27.59
8280;BME280;8335;42.646;23.380;2023-07-13T06:05:12;151396.59;;;39.76;27.37
8280;BME280;8335;42.646;23.380;2023-07-13T06:07:39;151500.59;;;40.17;26.96
8280;BME280;8335;42.646;23.380;2023-07-13T06:10:06;151596.97;;;40.56;26.77
8280;BME280;8335;42.646;23.380;2023-07-13T06:12:35;151687.03;;;40.92;25.60
8280;BME280;8335;42.646;23.380;2023-07-13T06:15:02;151591.91;;;40.54;26.19
8280;BME280;8335;42.646;23.380;2023-07-13T06:17:29;151572.88;;;40.47;26.50
8280;BME280;8335;42.646;23.380;2023-07-13T06:19:55;151591.91;;;40.54;26.90
8280;BME280;8335;42.646;23.380;2023-07-13T06:22:22;151665.44;;;40.84;26.46
8280;BME280;8335;42.646;23.380;2023-07-13T06:24:49;151684.50;;;40.91;26.36
8280;BME280;8335;42.646;23.380;2023-07-13T06:27:16;151760.56;;;41.22;26.08
8280;BME280;8335;42.646;23.380;2023-07-13T06:29:44;151843.06;;;41.55;25.91
8280;BME280;8335;42.646;23.380;2023-07-13T06:32:11;151873.53;;;41.67;25.36
8280;BME280;8335;42.646;23.380;2023-07-13T06:34:38;151835.50;;;41.52;25.56
8280;BME280;8335;42.646;23.380;2023-07-13T06:37:05;151850.72;;;41.58;25.17
8280;BME280;8335;42.646;23.380;2023-07-13T06:39:32;151845.59;;;41.56;25.42
8280;BME280;8335;42.646;23.380;2023-07-13T06:41:59;151862.09;;;41.63;24.94
8280;BME280;8335;42.646;23.380;2023-07-13T06:44:26;151817.72;;;41.45;25.20
8280;BME280;8335;42.646;23.380;2023-07-13T06:46:54;151849.41;;;41.58;24.77
8280;BME280;8335;42.646;23.380;2023-07-13T06:49:21;151886.28;;;41.72;24.36
8280;BME280;8335;42.646;23.380;2023-07-13T06:51:48;151968.72;;;42.05;25.19
8280;BME280;8335;42.646;23.380;2023-07-13T06:54:15;151832.97;;;41.51;25.17
8280;BME280;8335;42.646;23.380;2023-07-13T06:56:41;151799.97;;;41.38;25.43
8280;BME280;8335;42.646;23.380;2023-07-13T06:59:08;151746.66;;;41.16;24.43
8280;BME280;8335;42.646;23.380;2023-07-13T07:01:35;151673.06;;;40.87;24.54
8280;BME280;8335;42.646;23.380;2023-07-13T07:04:04;151745.41;;;41.16;25.38
8280;BME280;8335;42.646;23.380;2023-07-13T07:06:31;151869.75;;;41.66;24.01
8280;BME280;8335;42.646;23.380;2023-07-13T07:08:58;151962.38;;;42.03;24.20
8280;BME280;8335;42.646;23.380;2023-07-13T07:11:25;152081.66;;;42.51;23.96
8280;BME280;8335;42.646;23.380;2023-07-13T07:13:53;152080.41;;;42.50;23.50
8280;BME280;8335;42.646;23.380;2023-07-13T07:16:20;152105.88;;;42.61;23.23
8280;BME280;8335;42.646;23.380;2023-07-13T07:18:47;152129.97;;;42.70;23.39
8280;BME280;8335;42.646;23.380;2023-07-13T07:21:15;152112.19;;;42.63;24.60
8280;BME280;8335;42.646;23.380;2023-07-13T07:23:43;151904.00;;;41.79;24.34
8280;BME280;8335;42.646;23.380;2023-07-13T07:26:10;151936.97;;;41.93;24.27
8280;BME280;8335;42.646;23.380;2023-07-13T07:28:37;152039.81;;;42.34;24.82
8280;BME280;8335;42.646;23.380;2023-07-13T07:31:04;152037.28;;;42.33;24.05
8280;BME280;8335;42.646;23.380;2023-07-13T07:33:32;151980.16;;;42.10;24.97
8280;BME280;8335;42.646;23.380;2023-07-13T07:35:59;151971.25;;;42.06;25.40
8280;BME280;8335;42.646;23.380;2023-07-13T07:38:27;151871.00;;;41.66;24.72
8280;BME280;8335;42.646;23.380;2023-07-13T07:40:54;151959.84;;;42.02;24.58
8280;BME280;8335;42.646;23.380;2023-07-13T07:43:21;152063.91;;;42.44;24.04
8280;BME280;8335;42.646;23.380;2023-07-13T07:45:47;152146.47;;;42.77;23.65
8280;BME280;8335;42.646;23.380;2023-07-13T07:48:14;152168.03;;;42.85;24.11
8280;BME280;8335;42.646;23.380;2023-07-13T07:50:41;152096.94;;;42.57;22.39
8280;BME280;8335;42.646;23.380;2023-07-13T07:53:08;152085.53;;;42.52;22.94
8280;BME280;8335;42.646;23.380;2023-07-13T07:55:37;152004.28;;;42.20;23.75
8280;BME280;8335;42.646;23.380;2023-07-13T07:58:04;151868.47;;;41.65;24.80
8280;BME280;8335;42.646;23.380;2023-07-13T08:00:31;151920.50;;;41.86;24.55
8280;BME280;8335;42.646;23.380;2023-07-13T08:02:58;152008.09;;;42.21;24.16
8280;BME280;8335;42.646;23.380;2023-07-13T08:05:25;152080.41;;;42.50;23.54
8280;BME280;8335;42.646;23.380;2023-07-13T08:07:52;152152.78;;;42.79;23.94
8280;BME280;8335;42.646;23.380;2023-07-13T08:10:19;152249.31;;;43.18;23.65
8280;BME280;8335;42.646;23.380;2023-07-13T08:12:48;152305.22;;;43.40;23.17
8280;BME280;8335;42.646;23.380;2023-07-13T08:15:18;152325.53;;;43.49;23.20
8280;BME280;8335;42.646;23.380;2023-07-13T08:17:46;152253.13;;;43.20;23.39
8280;BME280;8335;42.646;23.380;2023-07-13T08:20:13;152061.38;;;42.43;24.52
8280;BME280;8335;42.646;23.380;2023-07-13T08:22:40;152066.47;;;42.45;24.05
8280;BME280;8335;42.646;23.380;2023-07-13T08:25:07;152156.63;;;42.81;23.89
8280;BME280;8335;42.646;23.380;2023-07-13T08:27:34;152211.25;;;43.03;23.41
8280;BME280;8335;42.646;23.380;2023-07-13T08:30:03;152245.53;;;43.17;22.84
8280;BME280;8335;42.646;23.380;2023-07-13T08:32:31;152336.97;;;43.53;22.58
8280;BME280;8335;42.646;23.380;2023-07-13T08:34:57;152324.25;;;43.48;23.10
8280;BME280;8335;42.646;23.380;2023-07-13T08:37:24;152394.16;;;43.76;22.88
8280;BME280;8335;42.646;23.380;2023-07-13T08:39:51;152364.88;;;43.64;23.13
8280;BME280;8335;42.646;23.380;2023-07-13T08:42:27;152370.00;;;43.66;23.32
8280;BME280;8335;42.646;23.380;2023-07-13T08:45:13;152419.53;;;43.86;22.59
8280;BME280;8335;42.646;23.380;2023-07-13T08:47:47;152381.38;;;43.71;22.68
8280;BME280;8335;42.646;23.380;2023-07-13T08:50:17;152430.97;;;43.91;22.28
8280;BME280;8335;42.646;23.380;2023-07-13T08:52:46;152448.75;;;43.98;22.30
8280;BME280;8335;42.646;23.380;2023-07-13T08:55:15;152446.22;;;43.97;21.96
8280;BME280;8335;42.646;23.380;2023-07-13T08:57:46;152424.63;;;43.88;22.49
8280;BME280;8335;42.646;23.380;2023-07-13T09:00:17;152466.53;;;44.05;22.93
8280;BME280;8335;42.646;23.380;2023-07-13T09:02:48;152546.59;;;44.37;22.68
8280;BME280;8335;42.646;23.380;2023-07-13T09:05:25;152503.38;;;44.20;23.10
8280;BME280;8335;42.646;23.380;2023-07-13T09:08:04;152409.38;;;43.82;22.81
8280;BME280;8335;42.646;23.380;2023-07-13T09:10:41;152430.97;;;43.91;22.73
8280;BME280;8335;42.646;23.380;2023-07-13T09:13:20;152395.41;;;43.77;22.61
8280;BME280;8335;42.646;23.380;2023-07-13T09:15:51;152353.47;;;43.60;22.83
8280;BME280;8335;42.646;23.380;2023-07-13T09:18:23;152274.69;;;43.28;23.43
8280;BME280;8335;42.646;23.380;2023-07-13T09:20:55;152199.81;;;42.98;22.85
8280;BME280;8335;42.646;23.380;2023-07-13T09:23:24;152184.53;;;42.92;22.90
8280;BME280;8335;42.646;23.380;2023-07-13T09:25:54;152215.06;;;43.04;23.07
8280;BME280;8335;42.646;23.380;2023-07-13T09:28:24;152283.59;;;43.32;23.59
8280;BME280;8335;42.646;23.380;2023-07-13T09:30:58;152442.41;;;43.96;23.42
8280;BME280;8335;42.646;23.380;2023-07-13T09:33:27;152472.84;;;44.08;22.88
8280;BME280;8335;42.646;23.380;2023-07-13T09:35:56;152330.59;;;43.51;22.76
8280;BME280;8335;42.646;23.380;2023-07-13T09:38:26;152283.59;;;43.32;22.82
8280;BME280;8335;42.646;23.380;2023-07-13T09:41:06;152400.47;;;43.79;22.01
8280;BME280;8335;42.646;23.380;2023-07-13T09:43:36;152509.78;;;44.23;22.41
8280;BME280;8335;42.646;23.380;2023-07-13T09:46:20;152554.19;;;44.40;22.27
8280;BME280;8335;42.646;23.380;2023-07-13T09:48:47;152411.91;;;43.83;22.83
8280;BME280;8335;42.646;23.380;2023-07-13T09:51:15;152348.38;;;43.58;23.35
8280;BME280;8335;42.646;23.380;2023-07-13T09:53:42;152273.44;;;43.28;23.39
8280;BME280;8335;42.646;23.380;2023-07-13T09:56:19;152241.69;;;43.15;23.00
8280;BME280;8335;42.646;23.380;2023-07-13T09:58:46;152189.63;;;42.94;23.08
8280;BME280;8335;42.646;23.380;2023-07-13T10:01:15;152184.53;;;42.92;22.94
8280;BME280;8335;42.646;23.380;2023-07-13T10:03:52;152019.53;;;42.26;24.16
8280;BME280;8335;42.646;23.380;2023-07-13T10:06:21;151992.84;;;42.15;25.35
8280;BME280;8335;42.646;23.380;2023-07-13T10:08:50;152102.06;;;42.59;24.19
8280;BME280;8335;42.646;23.380;2023-07-13T10:11:20;151996.69;;;42.17;25.21
8280;BME280;8335;42.646;23.380;2023-07-13T10:13:52;151961.13;;;42.02;24.04
8280;BME280;8335;42.646;23.380;2023-07-13T10:16:23;151817.72;;;41.45;25.28
8280;BME280;8335;42.646;23.380;2023-07-13T10:18:55;151746.66;;;41.16;25.77
8280;BME280;8335;42.646;23.380;2023-07-13T10:21:27;151811.38;;;41.42;24.58
8280;BME280;8335;42.646;23.380;2023-07-13T10:23:57;151846.88;;;41.57;25.15
8280;BME280;8335;42.646;23.380;2023-07-13T10:26:31;151840.53;;;41.54;24.57
8280;BME280;8335;42.646;23.380;2023-07-13T10:29:04;151850.72;;;41.58;24.66
8280;BME280;8335;42.646;23.380;2023-07-13T10:31:37;151589.38;;;40.53;26.00
8280;BME280;8335;42.646;23.380;2023-07-13T10:34:04;151599.50;;;40.57;26.09
8280;BME280;8335;42.646;23.380;2023-07-13T10:36:35;151647.69;;;40.77;26.27
8280;BME280;8335;42.646;23.380;2023-07-13T10:39:06;151674.34;;;40.87;27.28
8280;BME280;8335;42.646;23.380;2023-07-13T10:41:37;151586.84;;;40.52;26.41
8280;BME280;8335;42.646;23.380;2023-07-13T10:44:09;151428.31;;;39.88;27.19
8280;BME280;8335;42.646;23.380;2023-07-13T10:46:43;151271.13;;;39.25;26.70
8280;BME280;8335;42.646;23.380;2023-07-13T10:49:11;151248.31;;;39.16;26.08
8280;BME280;8335;42.646;23.380;2023-07-13T10:51:39;151320.53;;;39.45;26.60
8280;BME280;8335;42.646;23.380;2023-07-13T10:54:20;151358.59;;;39.60;26.51
8280;BME280;8335;42.646;23.380;2023-07-13T10:56:53;151310.38;;;39.41;25.99
8280;BME280;8335;42.646;23.380;2023-07-13T10:59:33;151176.06;;;38.87;27.62
8280;BME280;8335;42.646;23.380;2023-07-13T11:02:11;151143.13;;;38.74;28.30
8280;BME280;8335;42.646;23.380;2023-07-13T11:04:42;151108.88;;;38.60;28.46
8280;BME280;8335;42.646;23.380;2023-07-13T11:07:19;151056.94;;;38.39;28.80
8280;BME280;8335;42.646;23.380;2023-07-13T11:09:51;151035.44;;;38.31;28.45
8280;BME280;8335;42.646;23.380;2023-07-13T11:15:12;150892.25;;;37.73;30.15
8280;BME280;8335;42.646;23.380;2023-07-13T11:18:00;150866.91;;;37.63;30.07
8280;BME280;8335;42.646;23.380;2023-07-13T11:20:34;150836.53;;;37.51;29.94
8280;BME280;8335;42.646;23.380;2023-07-13T11:23:28;150734.00;;;37.09;30.72
8280;BME280;8335;42.646;23.380;2023-07-13T11:25:55;150717.53;;;37.03;29.81
8280;BME280;8335;42.646;23.380;2023-07-13T11:28:24;150663.06;;;36.81;30.02
8280;BME280;8335;42.646;23.380;2023-07-13T11:31:13;150645.34;;;36.74;30.32
8280;BME280;8335;42.646;23.380;2023-07-13T11:34:06;150622.56;;;36.64;30.95
8280;BME280;8335;42.646;23.380;2023-07-13T11:36:43;150620.03;;;36.63;30.20
8280;BME280;8335;42.646;23.380;2023-07-13T11:39:17;150627.66;;;36.67;30.07
8280;BME280;8335;42.646;23.380;2023-07-13T11:41:50;150627.66;;;36.67;30.14
8280;BME280;8335;42.646;23.380;2023-07-13T11:44:22;150612.47;;;36.60;30.31
8280;BME280;8335;42.646;23.380;2023-07-13T11:46:52;150588.44;;;36.51;29.56
8280;BME280;8335;42.646;23.380;2023-07-13T11:49:22;150568.16;;;36.43;26.27
8280;BME280;8335;42.646;23.380;2023-07-13T11:51:50;150532.69;;;36.28;27.77
8280;BME280;8335;42.646;23.380;2023-07-13T11:54:27;150513.72;;;36.21;29.80
8280;BME280;8335;42.646;23.380;2023-07-13T11:56:55;150509.94;;;36.19;30.83
8280;BME280;8335;42.646;23.380;2023-07-13T11:59:26;150527.63;;;36.26;30.67
8280;BME280;8335;42.646;23.380;2023-07-13T12:01:54;150537.78;;;36.30;30.00
8280;BME280;8335;42.646;23.380;2023-07-13T12:04:25;150501.09;;;36.16;29.69
8280;BME280;8335;42.646;23.380;2023-07-13T12:06:56;150480.81;;;36.07;29.53
8280;BME280;8335;42.646;23.380;2023-07-13T12:09:27;150487.16;;;36.10;29.38
8280;BME280;8335;42.646;23.380;2023-07-13T12:11:56;150454.28;;;35.97;30.92
8280;BME280;8335;42.646;23.380;2023-07-13T12:14:24;150394.81;;;35.73;30.75
8280;BME280;8335;42.646;23.380;2023-07-13T12:16:52;150455.53;;;35.97;30.36
8280;BME280;8335;42.646;23.380;2023-07-13T12:19:21;150487.16;;;36.10;29.42
8280;BME280;8335;42.646;23.380;2023-07-13T12:21:52;150525.13;;;36.25;30.67
8280;BME280;8335;42.646;23.380;2023-07-13T12:24:20;150502.34;;;36.16;30.51
8280;BME280;8335;42.646;23.380;2023-07-13T12:26:51;150566.88;;;36.42;30.12
8280;BME280;8335;42.646;23.380;2023-07-13T12:29:18;150598.53;;;36.55;28.87
8280;BME280;8335;42.646;23.380;2023-07-13T12:31:46;150639.00;;;36.71;29.13
8280;BME280;8335;42.646;23.380;2023-07-13T12:34:15;150640.25;;;36.72;30.88
8280;BME280;8335;42.646;23.380;2023-07-13T12:36:47;150680.84;;;36.88;28.20
8280;BME280;8335;42.646;23.380;2023-07-13T12:39:18;150664.34;;;36.81;28.57
8280;BME280;8335;42.646;23.380;2023-07-13T12:41:46;150664.34;;;36.81;29.02
8280;BME280;8335;42.646;23.380;2023-07-13T12:44:17;150594.75;;;36.53;28.55
8280;BME280;8335;42.646;23.380;2023-07-13T12:46:57;150589.69;;;36.51;28.44
8280;BME280;8335;42.646;23.380;2023-07-13T12:49:27;150606.09;;;36.58;28.66
8280;BME280;8335;42.646;23.380;2023-07-13T12:52:00;150616.25;;;36.62;28.23
8280;BME280;8335;42.646;23.380;2023-07-13T12:54:30;150544.09;;;36.33;27.62
8280;BME280;8335;42.646;23.380;2023-07-13T12:56:58;150555.53;;;36.37;27.49
8280;BME280;8335;42.646;23.380;2023-07-13T12:59:31;150570.72;;;36.44;28.04
8280;BME280;8335;42.646;23.380;2023-07-13T13:02:02;150528.91;;;36.27;27.79
8280;BME280;8335;42.646;23.380;2023-07-13T13:04:30;150537.78;;;36.30;28.04
8280;BME280;8335;42.646;23.380;2023-07-13T13:07:03;150521.31;;;36.24;27.54
8280;BME280;8335;42.646;23.380;2023-07-13T13:09:33;150508.66;;;36.19;28.26
8280;BME280;8335;42.646;23.380;2023-07-13T13:12:00;150460.59;;;35.99;28.11
8280;BME280;8335;42.646;23.380;2023-07-13T13:14:27;150460.59;;;35.99;28.33